Integrity — WDF4881 — position and weather

sailwx.info

Track history (hours):
 
Tides and Currents Weather Stations Pressure Air Temp Water Temp Dewpoint Dewpoint Depression Visibility Wind Speed Wind Dir Waves Ship Positions

Integrity

Owner: Canal Barge Company, Inc., Belle Chasse, LA. More information available from US FCC via Universal Licensing System and Coast Guard Vessel Documentation Center.

Last reported at 2016-Apr-21 12:33 UTC. Time now 2016-May-05 10:30 UTC.
Position N 30°02' W 090°37'.
Warning: this ship's position is 13 days out of date.

Length 19 m; draft 2.8 m.

Type: Towing. MMSI: 367456830.

Date/timePositionNaut miles runAvg speedWind from/ knotsBaromVisibWave heightAir tempDewpointWater temp
2016-Apr-21 12:33N 30°02' W 090°37'  
2016-Apr-16 09:33N 29°34' W 090°31'5 5.5
2016-Apr-16 08:33N 29°35' W 090°38'5 4.6
2016-Apr-16 07:33N 29°37' W 090°43'5 4.6
2016-Apr-16 06:33N 29°33' W 090°45'0 0.2
2016-Apr-16 05:33N 29°33' W 090°46'118 3.3
2016-Apr-14 17:29N 29°56' W 092°59'5 5.5
2016-Apr-14 16:33N 29°56' W 093°05'5 5.1
2016-Apr-14 15:33N 29°57' W 093°10'5 5.1
2016-Apr-14 14:33N 30°01' W 093°14'5 4.9
2016-Apr-14 13:33N 30°05' W 093°17'4 3.7
2016-Apr-14 12:33N 30°04' W 093°21'6 6.2
2016-Apr-14 11:33N 30°04' W 093°28'6 5.8
2016-Apr-14 10:33N 30°04' W 093°35'6 6.1
2016-Apr-14 09:33N 30°03' W 093°42'3 3.3
2016-Apr-14 08:32N 30°01' W 093°45'6 5.7
2016-Apr-14 07:26N 29°58' W 093°51'5 5.7
2016-Apr-14 06:33N 29°54' W 093°54'6 5.4
2016-Apr-14 05:30N 29°49' W 093°58'51 4.6
2016-Apr-13 18:31N 29°24' W 094°49'5 5.1
2016-Apr-13 17:33N 29°29' W 094°51'6 6.3
2016-Apr-13 16:33N 29°34' W 094°55'7 6.6
2016-Apr-13 15:33N 29°40' W 094°58'6 6.0
2016-Apr-13 14:33N 29°44' W 095°03'2 1.2
2016-Apr-13 12:26N 29°46' W 095°05'4 4.2
2016-Apr-13 11:33N 29°44' W 095°01'0 0.0
2016-Apr-13 00:25N 29°44' W 095°01'0 0.0
2016-Apr-12 23:33N 29°44' W 095°01'0 0.0
2016-Apr-12 22:33N 29°44' W 095°01'0 0.0
2016-Apr-12 21:33N 29°44' W 095°01'0 0.0
2016-Apr-12 20:33N 29°44' W 095°01'0 0.0
2016-Apr-12 19:31N 29°44' W 095°01'0 0.0
2016-Apr-12 18:32N 29°44' W 095°01'0 0.0
2016-Apr-12 17:33N 29°44' W 095°01'0 0.0
2016-Apr-12 16:33N 29°44' W 095°01'0 0.0
2016-Apr-12 15:26N 29°44' W 095°01'0 0.0
2016-Apr-12 13:08N 29°44' W 095°01'0 0.0
2016-Apr-12 12:33N 29°44' W 095°01'0 0.0
2016-Apr-12 11:30N 29°44' W 095°01'0 0.0
2016-Apr-12 10:33N 29°44' W 095°01'0 0.0
2016-Apr-12 09:32N 29°44' W 095°01'0 0.0
2016-Apr-12 08:33N 29°44' W 095°01'0 0.0
2016-Apr-12 07:33N 29°44' W 095°01'0 0.0
2016-Apr-12 06:32N 29°44' W 095°01'0 0.0
2016-Apr-12 05:33N 29°44' W 095°01'0 0.0
2016-Apr-12 04:31N 29°44' W 095°01'0 0.0
2016-Apr-12 03:23N 29°44' W 095°01'0 0.0
2016-Apr-12 02:17N 29°44' W 095°01'0 0.0
2016-Apr-12 01:33N 29°44' W 095°01'1 0.7
2016-Apr-12 00:32N 29°44' W 095°02'3 3.4
2016-Apr-11 23:33N 29°41' W 094°59'6 6.0
2016-Apr-11 22:33N 29°36' W 094°57'8 6.7
2016-Apr-11 21:25N 29°30' W 094°52'  
Track history (hours):
 
Tides and Currents Weather Stations Pressure Air Temp Water Temp Dewpoint Dewpoint Depression Visibility Wind Speed Wind Dir Waves Ship Positions

Integrity

Owner: Canal Barge Company, Inc., Belle Chasse, LA. More information available from US FCC via Universal Licensing System and Coast Guard Vessel Documentation Center.

Last reported at 2016-Apr-21 12:33 UTC. Time now 2016-May-05 10:30 UTC.
Position N 30°02' W 090°37'.
Warning: this ship's position is 13 days out of date.

Length 19 m; draft 2.8 m.

Type: Towing. MMSI: 367456830.

Date/timePositionNaut miles runAvg speedWind from/ knotsBaromVisibWave heightAir tempDewpointWater temp
2016-Apr-21 12:33N 30°02' W 090°37'  
2016-Apr-16 09:33N 29°34' W 090°31'5 5.5
2016-Apr-16 08:33N 29°35' W 090°38'5 4.6
2016-Apr-16 07:33N 29°37' W 090°43'5 4.6
2016-Apr-16 06:33N 29°33' W 090°45'0 0.2
2016-Apr-16 05:33N 29°33' W 090°46'118 3.3
2016-Apr-14 17:29N 29°56' W 092°59'5 5.5
2016-Apr-14 16:33N 29°56' W 093°05'5 5.1
2016-Apr-14 15:33N 29°57' W 093°10'5 5.1
2016-Apr-14 14:33N 30°01' W 093°14'5 4.9
2016-Apr-14 13:33N 30°05' W 093°17'4 3.7
2016-Apr-14 12:33N 30°04' W 093°21'6 6.2
2016-Apr-14 11:33N 30°04' W 093°28'6 5.8
2016-Apr-14 10:33N 30°04' W 093°35'6 6.1
2016-Apr-14 09:33N 30°03' W 093°42'3 3.3
2016-Apr-14 08:32N 30°01' W 093°45'6 5.7
2016-Apr-14 07:26N 29°58' W 093°51'5 5.7
2016-Apr-14 06:33N 29°54' W 093°54'6 5.4
2016-Apr-14 05:30N 29°49' W 093°58'51 4.6
2016-Apr-13 18:31N 29°24' W 094°49'5 5.1
2016-Apr-13 17:33N 29°29' W 094°51'6 6.3
2016-Apr-13 16:33N 29°34' W 094°55'7 6.6
2016-Apr-13 15:33N 29°40' W 094°58'6 6.0
2016-Apr-13 14:33N 29°44' W 095°03'2 1.2
2016-Apr-13 12:26N 29°46' W 095°05'4 4.2
2016-Apr-13 11:33N 29°44' W 095°01'0 0.0
2016-Apr-13 00:25N 29°44' W 095°01'0 0.0
2016-Apr-12 23:33N 29°44' W 095°01'0 0.0
2016-Apr-12 22:33N 29°44' W 095°01'0 0.0
2016-Apr-12 21:33N 29°44' W 095°01'0 0.0
2016-Apr-12 20:33N 29°44' W 095°01'0 0.0
2016-Apr-12 19:31N 29°44' W 095°01'0 0.0
2016-Apr-12 18:32N 29°44' W 095°01'0 0.0
2016-Apr-12 17:33N 29°44' W 095°01'0 0.0
2016-Apr-12 16:33N 29°44' W 095°01'0 0.0
2016-Apr-12 15:26N 29°44' W 095°01'0 0.0
2016-Apr-12 13:08N 29°44' W 095°01'0 0.0
2016-Apr-12 12:33N 29°44' W 095°01'0 0.0
2016-Apr-12 11:30N 29°44' W 095°01'0 0.0
2016-Apr-12 10:33N 29°44' W 095°01'0 0.0
2016-Apr-12 09:32N 29°44' W 095°01'0 0.0
2016-Apr-12 08:33N 29°44' W 095°01'0 0.0
2016-Apr-12 07:33N 29°44' W 095°01'0 0.0
2016-Apr-12 06:32N 29°44' W 095°01'0 0.0
2016-Apr-12 05:33N 29°44' W 095°01'0 0.0
2016-Apr-12 04:31N 29°44' W 095°01'0 0.0
2016-Apr-12 03:23N 29°44' W 095°01'0 0.0
2016-Apr-12 02:17N 29°44' W 095°01'0 0.0
2016-Apr-12 01:33N 29°44' W 095°01'1 0.7
2016-Apr-12 00:32N 29°44' W 095°02'3 3.4
2016-Apr-11 23:33N 29°41' W 094°59'6 6.0
2016-Apr-11 22:33N 29°36' W 094°57'8 6.7
2016-Apr-11 21:25N 29°30' W 094°52'  

Dump ship's entire track history